Galesburg, Iowa
Current Conditions -  °F | °C
As of 10:15 PM on Sunday 25 Jan 2015 (Local Time) from KTNU Reporting Station
Overcast Overcast  
Wind Chill: 25°   Ceiling: 1700
Heat Index: 30°   Visibility: 10mi
Dew Point: 27°   Wind: 5mph
Humidity: 86%   Direction: NA
Pressure: 30.06"   Gusts: NA
Location:  41.587°N, 93.0159°W
Report Text: KTNU 260415Z AUTO VRB04KT 10SM OVC017 M01/M03 A3006 RMK AO2
Loading
Personal Weather Stations






























Interactive Weather Map New forecast layout! Learn more

10-Day Weather Forecast

Advertisements
Track Severe Weather on mobile